RMQ weather

Taichung Ching Chuang Kang Airport
Taichung City, Taichung (city), Taiwan

Public forecast

Using degrees Celsius for public forecast. Weather courtesy of forecast.io.

Current aviation weather report (METAR) for Taichung Ching Chuang Kang Airport

Retrieved 2019/11/14 05:00 UTC (11 seconds ago):

RCMQ 140500Z 01020KT 9999 FEW012 25/14 Q1015 NOSIG RMK A3000

Aviation forecast (TAF) for Taichung Ching Chuang Kang Airport

Retrieved 2019-11-14 00:00 UTC (5 hours ago):

TAF RCMQ 132300Z 1400/1424 02015KT 9999 FEW012 BKN060 TX26/1406Z TN16/1421Z BECMG 1401/1404 02022G32KT BECMG 1407/1410 02015KT FEW012 SCT050 BECMG 1415/1418 02010KT